VTK002 UHPP-UHMM
Flight info
| Callsign | VTK002 |
|---|---|
| Flight time | 1h 24m |
| Altitude | 38000 |
| Route | BAKEN4M BAKEN A812 OSKET OSKET5J |
| Aircraft | A20N/M-SDE2E3FGHIRWXY/LB1 |
Departure
| Time | 2026-04-26 09:12 |
|---|---|
| Airport | Yelizovo Airport (UHPP) |
Arrival
| Time | 2026-04-26 10:36 |
|---|---|
| Airport | Sokol Airport (UHMM) |
| Time | Latitude | Longitude | Altitude | Speed | Heading |
|---|---|---|---|---|---|
| 2026-04-26 08:51 | 53.18252 | 158.43428 | 123 ft | 0 kts | 227° |
| 2026-04-26 09:05 | 53.18255 | 158.43434 | 119 ft | 1 kts | 227° |
| 2026-04-26 09:05 | 53.18260 | 158.43443 | 120 ft | 1 kts | 227° |
| 2026-04-26 09:05 | 53.18266 | 158.43453 | 119 ft | 1 kts | 227° |
| 2026-04-26 09:06 | 53.18272 | 158.43465 | 117 ft | 2 kts | 224° |
| 2026-04-26 09:06 | 53.18284 | 158.43481 | 122 ft | 2 kts | 205° |
| 2026-04-26 09:06 | 53.18298 | 158.43489 | 119 ft | 2 kts | 180° |
| 2026-04-26 09:06 | 53.18313 | 158.43485 | 108 ft | 2 kts | 150° |
| 2026-04-26 09:07 | 53.18319 | 158.43479 | 131 ft | 0 kts | 134° |
| 2026-04-26 09:07 | 53.18319 | 158.43478 | 131 ft | 0 kts | 134° |
| 2026-04-26 09:09 | 53.18317 | 158.43481 | 117 ft | 2 kts | 135° |
| 2026-04-26 09:09 | 53.18290 | 158.43525 | 120 ft | 8 kts | 139° |
| 2026-04-26 09:09 | 53.18238 | 158.43587 | 122 ft | 10 kts | 124° |
| 2026-04-26 09:09 | 53.18250 | 158.43704 | 117 ft | 12 kts | 68° |
| 2026-04-26 09:10 | 53.18287 | 158.43839 | 120 ft | 14 kts | 65° |
| 2026-04-26 09:10 | 53.18318 | 158.43978 | 121 ft | 5 kts | 76° |
| 2026-04-26 09:10 | 53.18316 | 158.44031 | 124 ft | 4 kts | 98° |
| 2026-04-26 09:10 | 53.18309 | 158.44081 | 123 ft | 5 kts | 107° |
| 2026-04-26 09:11 | 53.18283 | 158.44130 | 124 ft | 7 kts | 144° |
| 2026-04-26 09:11 | 53.18189 | 158.44197 | 124 ft | 37 kts | 158° |
| 2026-04-26 09:11 | 53.17685 | 158.44548 | 124 ft | 116 kts | 156° |
| 2026-04-26 09:11 | 53.17107 | 158.44957 | 136 ft | 155 kts | 156° |
| 2026-04-26 09:12 | 53.15692 | 158.45898 | 932 ft | 174 kts | 160° |
| 2026-04-26 09:12 | 53.14512 | 158.46650 | 1644 ft | 192 kts | 161° |
| 2026-04-26 09:12 | 53.13201 | 158.47507 | 2372 ft | 209 kts | 161° |
| 2026-04-26 09:12 | 53.11794 | 158.48471 | 3098 ft | 229 kts | 160° |
| 2026-04-26 09:13 | 53.10236 | 158.49549 | 3671 ft | 253 kts | 159° |
| 2026-04-26 09:13 | 53.08532 | 158.50737 | 4242 ft | 278 kts | 158° |
| 2026-04-26 09:13 | 53.07317 | 158.51590 | 4614 ft | 293 kts | 157° |
| 2026-04-26 09:13 | 53.05391 | 158.52948 | 5274 ft | 309 kts | 157° |
| 2026-04-26 09:14 | 53.03361 | 158.54380 | 5960 ft | 323 kts | 156° |
| 2026-04-26 09:14 | 53.01245 | 158.55872 | 6630 ft | 337 kts | 156° |
| 2026-04-26 09:14 | 52.99020 | 158.57279 | 7279 ft | 349 kts | 167° |
| 2026-04-26 09:14 | 52.96583 | 158.57502 | 7950 ft | 357 kts | 189° |
| 2026-04-26 09:15 | 52.94223 | 158.56237 | 8708 ft | 359 kts | 211° |
| 2026-04-26 09:15 | 52.92285 | 158.53671 | 9548 ft | 358 kts | 232° |
| 2026-04-26 09:15 | 52.91007 | 158.50158 | 10339 ft | 356 kts | 252° |
| 2026-04-26 09:15 | 52.90540 | 158.46148 | 11121 ft | 356 kts | 271° |
| 2026-04-26 09:16 | 52.90924 | 158.42119 | 11923 ft | 356 kts | 290° |
| 2026-04-26 09:16 | 52.92110 | 158.38523 | 12753 ft | 358 kts | 308° |
| 2026-04-26 09:16 | 52.93970 | 158.35755 | 13601 ft | 363 kts | 326° |
| 2026-04-26 09:16 | 52.96313 | 158.34120 | 14366 ft | 369 kts | 345° |
| 2026-04-26 09:17 | 52.98885 | 158.33760 | 15145 ft | 374 kts | 358° |
| 2026-04-26 09:17 | 53.01487 | 158.33827 | 15940 ft | 374 kts | 356° |
| 2026-04-26 09:17 | 53.04081 | 158.33472 | 16754 ft | 373 kts | 349° |
| 2026-04-26 09:17 | 53.06603 | 158.32643 | 17457 ft | 375 kts | 344° |
| 2026-04-26 09:18 | 53.09127 | 158.31469 | 18164 ft | 377 kts | 341° |
| 2026-04-26 09:18 | 53.11631 | 158.30126 | 18799 ft | 379 kts | 340° |
| 2026-04-26 09:18 | 53.14139 | 158.28712 | 19436 ft | 381 kts | 339° |
| 2026-04-26 09:18 | 53.16658 | 158.27278 | 20087 ft | 383 kts | 340° |
| 2026-04-26 09:19 | 53.19185 | 158.25842 | 20750 ft | 384 kts | 340° |
| 2026-04-26 09:19 | 53.21724 | 158.24406 | 21431 ft | 385 kts | 340° |
| 2026-04-26 09:19 | 53.24274 | 158.22967 | 22067 ft | 388 kts | 340° |
| 2026-04-26 09:19 | 53.26841 | 158.21519 | 22632 ft | 391 kts | 340° |
| 2026-04-26 09:20 | 53.29433 | 158.20058 | 23219 ft | 394 kts | 340° |
| 2026-04-26 09:20 | 53.32013 | 158.18601 | 23735 ft | 396 kts | 340° |
| 2026-04-26 09:20 | 53.34646 | 158.17113 | 24225 ft | 398 kts | 340° |
| 2026-04-26 09:20 | 53.37277 | 158.15625 | 24715 ft | 400 kts | 340° |
| 2026-04-26 09:21 | 53.39926 | 158.14125 | 25225 ft | 401 kts | 340° |
| 2026-04-26 09:21 | 53.42547 | 158.12638 | 25666 ft | 404 kts | 340° |
| 2026-04-26 09:21 | 53.45220 | 158.11119 | 26056 ft | 407 kts | 339° |
| 2026-04-26 09:21 | 53.47909 | 158.09589 | 26462 ft | 410 kts | 339° |
| 2026-04-26 09:22 | 53.50627 | 158.08042 | 26866 ft | 413 kts | 339° |
| 2026-04-26 09:22 | 53.53355 | 158.06486 | 27279 ft | 415 kts | 339° |
| 2026-04-26 09:22 | 53.56103 | 158.04917 | 27694 ft | 417 kts | 339° |
| 2026-04-26 09:22 | 53.58864 | 158.03339 | 28117 ft | 418 kts | 339° |
| 2026-04-26 09:23 | 53.61623 | 158.01759 | 28546 ft | 419 kts | 339° |
| 2026-04-26 09:23 | 53.64385 | 158.00160 | 28986 ft | 419 kts | 338° |
| 2026-04-26 09:23 | 53.67048 | 157.98191 | 29429 ft | 418 kts | 331° |
| 2026-04-26 09:23 | 53.69583 | 157.95787 | 29878 ft | 417 kts | 329° |
| 2026-04-26 09:24 | 53.72105 | 157.93364 | 30258 ft | 418 kts | 329° |
| 2026-04-26 09:24 | 53.74652 | 157.90935 | 30626 ft | 418 kts | 329° |
| 2026-04-26 09:24 | 53.77190 | 157.88512 | 30979 ft | 419 kts | 329° |
| 2026-04-26 09:24 | 53.79736 | 157.86070 | 31253 ft | 422 kts | 329° |
| 2026-04-26 09:25 | 53.82262 | 157.83618 | 31510 ft | 425 kts | 328° |
| 2026-04-26 09:25 | 53.84831 | 157.81106 | 31771 ft | 428 kts | 328° |
| 2026-04-26 09:25 | 53.87419 | 157.78571 | 32024 ft | 431 kts | 328° |
| 2026-04-26 09:25 | 53.90021 | 157.76020 | 32280 ft | 433 kts | 328° |
| 2026-04-26 09:26 | 53.92637 | 157.73455 | 32551 ft | 435 kts | 328° |
| 2026-04-26 09:26 | 53.95260 | 157.70880 | 32820 ft | 437 kts | 328° |
| 2026-04-26 09:26 | 53.97901 | 157.68284 | 33092 ft | 438 kts | 328° |
| 2026-04-26 09:26 | 54.00546 | 157.65680 | 33366 ft | 440 kts | 328° |
| 2026-04-26 09:27 | 54.03195 | 157.63068 | 33642 ft | 441 kts | 328° |
| 2026-04-26 09:27 | 54.05851 | 157.60446 | 33918 ft | 441 kts | 328° |
| 2026-04-26 09:27 | 54.08511 | 157.57816 | 34149 ft | 442 kts | 328° |
| 2026-04-26 09:27 | 54.11172 | 157.55182 | 34384 ft | 442 kts | 328° |
| 2026-04-26 09:28 | 54.13837 | 157.52549 | 34614 ft | 443 kts | 328° |
| 2026-04-26 09:28 | 54.16512 | 157.49913 | 34853 ft | 443 kts | 328° |
| 2026-04-26 09:28 | 54.19171 | 157.47292 | 35157 ft | 441 kts | 328° |
| 2026-04-26 09:28 | 54.21788 | 157.44707 | 35453 ft | 439 kts | 328° |
| 2026-04-26 09:29 | 54.24432 | 157.42090 | 35767 ft | 437 kts | 328° |
| 2026-04-26 09:29 | 54.27061 | 157.39483 | 36082 ft | 435 kts | 328° |
| 2026-04-26 09:29 | 54.29673 | 157.36888 | 36397 ft | 433 kts | 328° |
| 2026-04-26 09:29 | 54.32274 | 157.34300 | 36705 ft | 430 kts | 328° |
| 2026-04-26 09:30 | 54.34857 | 157.31726 | 36965 ft | 429 kts | 328° |
| 2026-04-26 09:30 | 54.37423 | 157.29167 | 37440 ft | 421 kts | 328° |
| 2026-04-26 09:30 | 54.39945 | 157.26646 | 37742 ft | 420 kts | 328° |
| 2026-04-26 09:30 | 54.42469 | 157.24120 | 37901 ft | 420 kts | 328° |
| 2026-04-26 09:31 | 54.45002 | 157.21582 | 37987 ft | 422 kts | 328° |
| 2026-04-26 09:31 | 54.50132 | 157.16429 | 37988 ft | 431 kts | 328° |
| 2026-04-26 09:32 | 54.55324 | 157.11200 | 37993 ft | 437 kts | 328° |
| 2026-04-26 09:32 | 54.60563 | 157.05909 | 37993 ft | 435 kts | 328° |
| 2026-04-26 09:33 | 54.65786 | 157.00617 | 37997 ft | 436 kts | 328° |
| 2026-04-26 09:33 | 54.71015 | 156.95305 | 38000 ft | 436 kts | 328° |
| 2026-04-26 09:34 | 54.76244 | 156.89975 | 38001 ft | 436 kts | 328° |
| 2026-04-26 09:34 | 54.81486 | 156.84617 | 38005 ft | 436 kts | 328° |
| 2026-04-26 09:35 | 54.86714 | 156.79257 | 38006 ft | 436 kts | 328° |
| 2026-04-26 09:35 | 54.91946 | 156.73880 | 38010 ft | 437 kts | 328° |
| 2026-04-26 09:36 | 54.97140 | 156.68527 | 38013 ft | 437 kts | 328° |
| 2026-04-26 09:36 | 55.02375 | 156.63107 | 38013 ft | 437 kts | 328° |
| 2026-04-26 09:37 | 55.07603 | 156.57671 | 38017 ft | 437 kts | 328° |
| 2026-04-26 09:37 | 55.12830 | 156.52220 | 38020 ft | 437 kts | 328° |
| 2026-04-26 09:38 | 55.18060 | 156.46759 | 38020 ft | 437 kts | 328° |
| 2026-04-26 09:38 | 55.23286 | 156.41297 | 38020 ft | 437 kts | 328° |
| 2026-04-26 09:39 | 55.28513 | 156.35815 | 38027 ft | 438 kts | 328° |
| 2026-04-26 09:39 | 55.33744 | 156.30310 | 38024 ft | 438 kts | 328° |
| 2026-04-26 09:40 | 55.38972 | 156.24791 | 38029 ft | 438 kts | 328° |
| 2026-04-26 09:40 | 55.44186 | 156.19252 | 38033 ft | 438 kts | 328° |
| 2026-04-26 09:41 | 55.49367 | 156.13713 | 38032 ft | 438 kts | 328° |
| 2026-04-26 09:41 | 55.54652 | 156.08047 | 38035 ft | 438 kts | 328° |
| 2026-04-26 09:42 | 55.59829 | 156.02483 | 38038 ft | 438 kts | 328° |
| 2026-04-26 09:42 | 55.65072 | 155.96831 | 38040 ft | 438 kts | 328° |
| 2026-04-26 09:43 | 55.70248 | 155.91234 | 38038 ft | 438 kts | 328° |
| 2026-04-26 09:43 | 55.75452 | 155.85586 | 38024 ft | 439 kts | 328° |
| 2026-04-26 09:44 | 55.80667 | 155.79909 | 38023 ft | 439 kts | 328° |
| 2026-04-26 09:44 | 55.85876 | 155.74221 | 38030 ft | 439 kts | 328° |
| 2026-04-26 09:45 | 55.91076 | 155.68524 | 38032 ft | 439 kts | 328° |
| 2026-04-26 09:45 | 55.96249 | 155.62840 | 38045 ft | 439 kts | 328° |
| 2026-04-26 09:46 | 56.01455 | 155.57101 | 38043 ft | 439 kts | 328° |
| 2026-04-26 09:46 | 56.06657 | 155.51348 | 38045 ft | 439 kts | 328° |
| 2026-04-26 09:47 | 56.11856 | 155.45579 | 38045 ft | 439 kts | 328° |
| 2026-04-26 09:47 | 56.17029 | 155.39821 | 38041 ft | 440 kts | 328° |
| 2026-04-26 09:48 | 56.22238 | 155.34067 | 38032 ft | 440 kts | 328° |
| 2026-04-26 09:48 | 56.27473 | 155.28349 | 38036 ft | 440 kts | 328° |
| 2026-04-26 09:49 | 56.32708 | 155.22602 | 38036 ft | 440 kts | 328° |
| 2026-04-26 09:49 | 56.37937 | 155.16831 | 38038 ft | 440 kts | 328° |
| 2026-04-26 09:50 | 56.43132 | 155.11079 | 38046 ft | 440 kts | 328° |
| 2026-04-26 09:50 | 56.48363 | 155.05268 | 38042 ft | 440 kts | 328° |
| 2026-04-26 09:51 | 56.52705 | 155.00430 | 38040 ft | 440 kts | 328° |
| 2026-04-26 09:51 | 56.57927 | 154.94593 | 38055 ft | 441 kts | 328° |
| 2026-04-26 09:52 | 56.63145 | 154.88741 | 38037 ft | 441 kts | 328° |
| 2026-04-26 09:52 | 56.70972 | 154.79929 | 38046 ft | 441 kts | 328° |
| 2026-04-26 09:53 | 56.76166 | 154.74056 | 38056 ft | 441 kts | 328° |
| 2026-04-26 09:53 | 56.81375 | 154.68148 | 38039 ft | 441 kts | 328° |
| 2026-04-26 09:54 | 56.86588 | 154.62215 | 38048 ft | 441 kts | 328° |
| 2026-04-26 09:54 | 56.91802 | 154.56260 | 38047 ft | 441 kts | 328° |
| 2026-04-26 09:55 | 56.96987 | 154.50321 | 38061 ft | 442 kts | 328° |
| 2026-04-26 09:55 | 57.02198 | 154.44329 | 38060 ft | 441 kts | 328° |
| 2026-04-26 09:56 | 57.07403 | 154.38326 | 38050 ft | 442 kts | 328° |
| 2026-04-26 09:56 | 57.12614 | 154.32296 | 38055 ft | 442 kts | 328° |
| 2026-04-26 09:57 | 57.17788 | 154.26289 | 38051 ft | 442 kts | 328° |
| 2026-04-26 09:57 | 57.22994 | 154.20197 | 38064 ft | 442 kts | 327° |
| 2026-04-26 09:58 | 57.28166 | 154.14039 | 38064 ft | 442 kts | 327° |
| 2026-04-26 09:58 | 57.33312 | 154.07901 | 38064 ft | 442 kts | 327° |
| 2026-04-26 09:59 | 57.38492 | 154.01709 | 38056 ft | 443 kts | 327° |
| 2026-04-26 09:59 | 57.43667 | 153.95503 | 38047 ft | 443 kts | 327° |
| 2026-04-26 10:00 | 57.48840 | 153.89280 | 38053 ft | 443 kts | 327° |
| 2026-04-26 10:00 | 57.53984 | 153.83069 | 38062 ft | 443 kts | 327° |
| 2026-04-26 10:01 | 57.59156 | 153.76803 | 38065 ft | 443 kts | 327° |
| 2026-04-26 10:01 | 57.64325 | 153.70520 | 38064 ft | 443 kts | 327° |
| 2026-04-26 10:02 | 57.69492 | 153.64217 | 38063 ft | 444 kts | 327° |
| 2026-04-26 10:02 | 57.74664 | 153.57886 | 38046 ft | 444 kts | 327° |
| 2026-04-26 10:03 | 57.79833 | 153.51537 | 38051 ft | 444 kts | 327° |
| 2026-04-26 10:03 | 57.84972 | 153.45228 | 38048 ft | 444 kts | 327° |
| 2026-04-26 10:04 | 57.90142 | 153.38871 | 38061 ft | 444 kts | 327° |
| 2026-04-26 10:04 | 57.95312 | 153.32488 | 38064 ft | 444 kts | 327° |
| 2026-04-26 10:05 | 58.00489 | 153.26073 | 38065 ft | 444 kts | 327° |
| 2026-04-26 10:05 | 58.05659 | 153.19643 | 38061 ft | 445 kts | 327° |
| 2026-04-26 10:06 | 58.10826 | 153.13195 | 38064 ft | 445 kts | 327° |
| 2026-04-26 10:06 | 58.15992 | 153.06724 | 38060 ft | 445 kts | 327° |
| 2026-04-26 10:07 | 58.21106 | 153.00216 | 38063 ft | 445 kts | 325° |
| 2026-04-26 10:07 | 58.26159 | 152.93397 | 38061 ft | 445 kts | 325° |
| 2026-04-26 10:08 | 58.31222 | 152.86567 | 38062 ft | 446 kts | 325° |
| 2026-04-26 10:08 | 58.36292 | 152.79755 | 38063 ft | 446 kts | 325° |
| 2026-04-26 10:09 | 58.41364 | 152.72924 | 38059 ft | 446 kts | 325° |
| 2026-04-26 10:09 | 58.43861 | 152.69551 | 37915 ft | 443 kts | 325° |
| 2026-04-26 10:09 | 58.46364 | 152.66163 | 37488 ft | 440 kts | 325° |
| 2026-04-26 10:10 | 58.48858 | 152.62781 | 36939 ft | 438 kts | 325° |
| 2026-04-26 10:10 | 58.51335 | 152.59416 | 36351 ft | 437 kts | 326° |
| 2026-04-26 10:10 | 58.53813 | 152.56044 | 35733 ft | 435 kts | 326° |
| 2026-04-26 10:10 | 58.56283 | 152.52678 | 35134 ft | 434 kts | 326° |
| 2026-04-26 10:11 | 58.58741 | 152.49347 | 34545 ft | 432 kts | 327° |
| 2026-04-26 10:11 | 58.61235 | 152.46130 | 33945 ft | 431 kts | 328° |
| 2026-04-26 10:11 | 58.63732 | 152.42974 | 33263 ft | 428 kts | 328° |
| 2026-04-26 10:11 | 58.66214 | 152.39835 | 32578 ft | 426 kts | 328° |
| 2026-04-26 10:12 | 58.68686 | 152.36688 | 31891 ft | 425 kts | 327° |
| 2026-04-26 10:12 | 58.71147 | 152.33534 | 31210 ft | 423 kts | 327° |
| 2026-04-26 10:12 | 58.73589 | 152.30391 | 30486 ft | 422 kts | 327° |
| 2026-04-26 10:12 | 58.76003 | 152.27275 | 29531 ft | 424 kts | 327° |
| 2026-04-26 10:13 | 58.78453 | 152.24096 | 28658 ft | 423 kts | 327° |
| 2026-04-26 10:13 | 58.80881 | 152.20926 | 28405 ft | 408 kts | 327° |
| 2026-04-26 10:13 | 58.83166 | 152.17938 | 27925 ft | 400 kts | 327° |
| 2026-04-26 10:13 | 58.85472 | 152.14922 | 27298 ft | 396 kts | 327° |
| 2026-04-26 10:14 | 58.87745 | 152.11947 | 26676 ft | 392 kts | 327° |
| 2026-04-26 10:14 | 58.89991 | 152.09003 | 26123 ft | 387 kts | 327° |
| 2026-04-26 10:14 | 58.92204 | 152.06099 | 25790 ft | 383 kts | 327° |
| 2026-04-26 10:14 | 58.94417 | 152.03192 | 25530 ft | 386 kts | 327° |
| 2026-04-26 10:15 | 58.96644 | 152.00259 | 25229 ft | 386 kts | 327° |
| 2026-04-26 10:15 | 58.98858 | 151.97340 | 24771 ft | 383 kts | 327° |
| 2026-04-26 10:15 | 59.01048 | 151.94446 | 24300 ft | 378 kts | 327° |
| 2026-04-26 10:15 | 59.03203 | 151.91595 | 23833 ft | 372 kts | 327° |
| 2026-04-26 10:16 | 59.05338 | 151.88768 | 23330 ft | 371 kts | 327° |
| 2026-04-26 10:16 | 59.07467 | 151.85942 | 22850 ft | 370 kts | 327° |
| 2026-04-26 10:16 | 59.09585 | 151.83129 | 22421 ft | 368 kts | 327° |
| 2026-04-26 10:16 | 59.11706 | 151.80325 | 21997 ft | 367 kts | 327° |
| 2026-04-26 10:17 | 59.13814 | 151.77549 | 21574 ft | 365 kts | 327° |
| 2026-04-26 10:17 | 59.15912 | 151.74785 | 21168 ft | 363 kts | 327° |
| 2026-04-26 10:17 | 59.18002 | 151.72024 | 20764 ft | 362 kts | 327° |
| 2026-04-26 10:17 | 59.20058 | 151.69303 | 20373 ft | 361 kts | 327° |
| 2026-04-26 10:18 | 59.22131 | 151.66553 | 19975 ft | 360 kts | 327° |
| 2026-04-26 10:18 | 59.24199 | 151.63805 | 19591 ft | 358 kts | 327° |
| 2026-04-26 10:18 | 59.26257 | 151.61067 | 19205 ft | 357 kts | 327° |
| 2026-04-26 10:18 | 59.28313 | 151.58327 | 18826 ft | 356 kts | 327° |
| 2026-04-26 10:19 | 59.30328 | 151.55510 | 18449 ft | 356 kts | 323° |
| 2026-04-26 10:19 | 59.32155 | 151.52228 | 18032 ft | 357 kts | 315° |
| 2026-04-26 10:19 | 59.33759 | 151.48509 | 17611 ft | 356 kts | 310° |
| 2026-04-26 10:19 | 59.35284 | 151.44699 | 17182 ft | 353 kts | 310° |
| 2026-04-26 10:20 | 59.36809 | 151.40931 | 16766 ft | 352 kts | 310° |
| 2026-04-26 10:20 | 59.37816 | 151.38444 | 16457 ft | 351 kts | 310° |
| 2026-04-26 10:20 | 59.39815 | 151.33496 | 15736 ft | 347 kts | 310° |
| 2026-04-26 10:20 | 59.41307 | 151.29786 | 15208 ft | 344 kts | 310° |
| 2026-04-26 10:21 | 59.42785 | 151.26103 | 14628 ft | 344 kts | 310° |
| 2026-04-26 10:21 | 59.44267 | 151.22403 | 13989 ft | 345 kts | 310° |
| 2026-04-26 10:21 | 59.45750 | 151.18694 | 13297 ft | 345 kts | 310° |
| 2026-04-26 10:21 | 59.47230 | 151.14986 | 12600 ft | 345 kts | 310° |
| 2026-04-26 10:22 | 59.48710 | 151.11269 | 11932 ft | 344 kts | 310° |
| 2026-04-26 10:22 | 59.50164 | 151.07612 | 11490 ft | 333 kts | 310° |
| 2026-04-26 10:23 | 59.51265 | 151.04832 | 11272 ft | 317 kts | 310° |
| 2026-04-26 10:23 | 59.52583 | 151.01500 | 11004 ft | 300 kts | 310° |
| 2026-04-26 10:23 | 59.53832 | 150.98342 | 10737 ft | 284 kts | 310° |
| 2026-04-26 10:23 | 59.55028 | 150.95318 | 10486 ft | 279 kts | 310° |
| 2026-04-26 10:24 | 59.56225 | 150.92296 | 10232 ft | 279 kts | 310° |
| 2026-04-26 10:24 | 59.57416 | 150.89280 | 9964 ft | 276 kts | 310° |
| 2026-04-26 10:24 | 59.58595 | 150.86291 | 9697 ft | 276 kts | 310° |
| 2026-04-26 10:24 | 59.59771 | 150.83306 | 9422 ft | 274 kts | 310° |
| 2026-04-26 10:25 | 59.60942 | 150.80338 | 9136 ft | 273 kts | 310° |
| 2026-04-26 10:25 | 59.62106 | 150.77379 | 8861 ft | 272 kts | 310° |
| 2026-04-26 10:25 | 59.63261 | 150.74426 | 8589 ft | 271 kts | 310° |
| 2026-04-26 10:25 | 59.64409 | 150.71480 | 8309 ft | 270 kts | 310° |
| 2026-04-26 10:26 | 59.65558 | 150.68553 | 8043 ft | 269 kts | 310° |
| 2026-04-26 10:26 | 59.66703 | 150.65634 | 7784 ft | 268 kts | 310° |
| 2026-04-26 10:26 | 59.67825 | 150.62765 | 7536 ft | 267 kts | 310° |
| 2026-04-26 10:26 | 59.68958 | 150.59856 | 7260 ft | 266 kts | 310° |
| 2026-04-26 10:27 | 59.70084 | 150.56947 | 7049 ft | 265 kts | 310° |
| 2026-04-26 10:27 | 59.71188 | 150.54092 | 7019 ft | 262 kts | 310° |
| 2026-04-26 10:27 | 59.72311 | 150.51195 | 7013 ft | 265 kts | 310° |
| 2026-04-26 10:27 | 59.73437 | 150.48304 | 6982 ft | 264 kts | 310° |
| 2026-04-26 10:28 | 59.74555 | 150.45425 | 6760 ft | 262 kts | 310° |
| 2026-04-26 10:28 | 59.75671 | 150.42536 | 6318 ft | 266 kts | 310° |
| 2026-04-26 10:28 | 59.76780 | 150.39644 | 5986 ft | 258 kts | 310° |
| 2026-04-26 10:28 | 59.77499 | 150.37770 | 5803 ft | 259 kts | 310° |
| 2026-04-26 10:29 | 59.78972 | 150.33962 | 5440 ft | 258 kts | 310° |
| 2026-04-26 10:29 | 59.80058 | 150.31153 | 5166 ft | 255 kts | 311° |
| 2026-04-26 10:29 | 59.81375 | 150.28928 | 4916 ft | 251 kts | 337° |
| 2026-04-26 10:29 | 59.83041 | 150.28213 | 4642 ft | 244 kts | 3° |
| 2026-04-26 10:30 | 59.84752 | 150.28387 | 4399 ft | 246 kts | 4° |
| 2026-04-26 10:30 | 59.86450 | 150.28556 | 4096 ft | 239 kts | 4° |
| 2026-04-26 10:30 | 59.88071 | 150.28715 | 3846 ft | 228 kts | 4° |
| 2026-04-26 10:30 | 59.89618 | 150.28864 | 3744 ft | 213 kts | 5° |
| 2026-04-26 10:31 | 59.90969 | 150.29682 | 3577 ft | 197 kts | 35° |
| 2026-04-26 10:31 | 59.91601 | 150.30912 | 3485 ft | 188 kts | 54° |
| 2026-04-26 10:31 | 59.92057 | 150.34138 | 3120 ft | 187 kts | 90° |
| 2026-04-26 10:31 | 59.91977 | 150.36727 | 2891 ft | 187 kts | 89° |
| 2026-04-26 10:32 | 59.91953 | 150.38448 | 2803 ft | 178 kts | 87° |
| 2026-04-26 10:32 | 59.91925 | 150.41847 | 2833 ft | 187 kts | 89° |
| 2026-04-26 10:32 | 59.91883 | 150.43561 | 2855 ft | 177 kts | 90° |
| 2026-04-26 10:32 | 59.91801 | 150.46546 | 2820 ft | 146 kts | 89° |
| 2026-04-26 10:33 | 59.91764 | 150.47858 | 2813 ft | 144 kts | 89° |
| 2026-04-26 10:33 | 59.91708 | 150.49794 | 2671 ft | 137 kts | 89° |
| 2026-04-26 10:33 | 59.91658 | 150.51698 | 2451 ft | 137 kts | 89° |
| 2026-04-26 10:33 | 59.91606 | 150.53572 | 2239 ft | 132 kts | 89° |
| 2026-04-26 10:34 | 59.91553 | 150.55351 | 2041 ft | 130 kts | 89° |
| 2026-04-26 10:34 | 59.91504 | 150.57165 | 1826 ft | 131 kts | 89° |
| 2026-04-26 10:34 | 59.91452 | 150.58970 | 1638 ft | 132 kts | 90° |
| 2026-04-26 10:34 | 59.91403 | 150.60771 | 1415 ft | 129 kts | 89° |
| 2026-04-26 10:35 | 59.91354 | 150.62566 | 1236 ft | 130 kts | 90° |
| 2026-04-26 10:35 | 59.91304 | 150.64356 | 1061 ft | 130 kts | 90° |
| 2026-04-26 10:35 | 59.91250 | 150.66147 | 874 ft | 129 kts | 90° |
| 2026-04-26 10:35 | 59.91202 | 150.67948 | 692 ft | 130 kts | 90° |
| 2026-04-26 10:36 | 59.91160 | 150.69702 | 586 ft | 122 kts | 89° |
| 2026-04-26 10:36 | 59.91128 | 150.70949 | 584 ft | 46 kts | 93° |
| 2026-04-26 10:36 | 59.91119 | 150.71259 | 585 ft | 13 kts | 85° |
| 2026-04-26 10:36 | 59.91182 | 150.71355 | 584 ft | 15 kts | 2° |
| 2026-04-26 10:37 | 59.91291 | 150.71362 | 582 ft | 9 kts | 359° |
| 2026-04-26 10:37 | 59.91329 | 150.71411 | 582 ft | 7 kts | 74° |
| 2026-04-26 10:37 | 59.91329 | 150.71531 | 582 ft | 10 kts | 91° |
| 2026-04-26 10:37 | 59.91324 | 150.71687 | 582 ft | 12 kts | 95° |
| 2026-04-26 10:38 | 59.91323 | 150.71719 | 582 ft | 0 kts | 92° |